createdAt,value
2022-08-04T09:42:52.955Z,30.2
2022-08-04T09:49:58.057Z,30.9
2022-08-04T09:56:27.946Z,32.9
2022-08-04T10:02:33.038Z,31.2
2022-08-04T10:07:59.797Z,33.1
2022-08-04T10:14:13.959Z,32.8
2022-08-04T10:20:00.780Z,31.9
2022-08-04T10:28:26.592Z,32.9
2022-08-04T10:34:05.528Z,32.8
2022-08-04T10:40:49.630Z,32.1
2022-08-04T10:46:53.338Z,32.2
2022-08-04T10:53:07.783Z,31.8
2022-08-04T10:59:59.112Z,32.1
2022-08-04T11:06:35.047Z,33.1
2022-08-04T11:12:51.670Z,32.4
2022-08-04T11:18:49.645Z,34.3
2022-08-04T11:25:16.906Z,32.1
2022-08-04T11:31:05.248Z,31.4
2022-08-04T11:36:37.712Z,31.1
2022-08-04T11:42:40.978Z,32.7
2022-08-04T11:48:49.177Z,34.4
2022-08-04T11:54:52.594Z,34
2022-08-04T12:01:36.493Z,34.4
2022-08-04T12:08:21.908Z,32.8
2022-08-04T12:14:25.380Z,31.6
2022-08-04T12:21:15.271Z,30.7
2022-08-04T12:27:13.314Z,30.2
2022-08-04T12:34:39.274Z,29.8
2022-08-04T12:41:36.667Z,30.2
2022-08-04T12:48:21.221Z,30.6
2022-08-04T12:55:36.636Z,32.1
2022-08-04T13:02:44.137Z,31.4
2022-08-04T13:06:26.177Z,32.1
2022-08-04T13:12:18.974Z,33
2022-08-04T13:18:35.233Z,33.8
2022-08-04T13:32:09.875Z,33.4
2022-08-04T13:38:13.917Z,31.5
2022-08-04T13:45:07.827Z,32.1
2022-08-04T13:53:05.286Z,32.8
2022-08-04T13:58:57.305Z,32.7
2022-08-04T14:05:59.005Z,33.1
2022-08-04T14:13:19.449Z,33.6
2022-08-04T14:19:53.129Z,32.1
2022-08-04T14:25:35.293Z,32
2022-08-04T14:32:38.038Z,31.6
2022-08-04T14:41:02.921Z,31.1
2022-08-04T14:46:53.092Z,30.3
2022-08-04T14:52:28.489Z,30.1
2022-08-04T14:59:29.087Z,29.9
2022-08-04T15:06:38.952Z,29.9
2022-08-04T15:12:34.135Z,29.9
2022-08-04T15:19:55.409Z,30
2022-08-04T15:26:06.698Z,30
2022-08-04T15:33:20.375Z,31
2022-08-04T15:39:21.901Z,33.4
2022-08-04T15:45:15.067Z,34.9
2022-08-04T15:52:28.899Z,32.7
2022-08-04T15:59:06.078Z,32.9
2022-08-04T16:06:13.168Z,34.4
2022-08-04T16:12:44.597Z,34.3
2022-08-04T16:18:43.339Z,33.6
2022-08-04T16:24:47.925Z,33.8
2022-08-04T16:30:54.871Z,33.3
2022-08-04T16:37:38.423Z,32.6
2022-08-04T16:43:33.296Z,32.8
2022-08-04T16:50:08.251Z,31.6
2022-08-04T16:56:26.422Z,29.9
2022-08-04T17:02:39.890Z,29.6
2022-08-04T17:09:35.591Z,29.3
2022-08-04T17:16:04.201Z,28.8
2022-08-04T17:22:52.851Z,28.7
2022-08-04T17:31:59.115Z,28.2
2022-08-04T17:38:51.653Z,27.8
2022-08-04T17:46:48.355Z,27.4
2022-08-04T22:25:53.804Z,26.7
2022-08-04T22:31:53.149Z,18.1
2022-08-04T22:39:56.483Z,17.9
